Latest Weather Observations for Lord Howe Island

IDN60801

Issued at 3:32 pm EST Thursday 28 May 2015 (issued every 30 minutes, with the page automatically refreshed every 10 minutes)

About weather observations | Map of weather stations | Latest weather observations for NSW | Other Formats
Station Details ID: 200839 Name: LORD HOWE ISLAND AERO Lat: -31.54 Lon: 159.08 Height: 5.0 m
Data from the previous 72 hours. | See also: Recent months at Lord Howe Island
Date/Time
EST
Temp
°C
App
Temp
°C
Dew
Point
Rel
Hum
%
Delta-T
°C
Wind Press
QNH
hPa
Press
MSL
hPa
Rain
since 9 am
mm
Dir
 
Spd
km/h
Gust
km/h
Spd
kts
Gust
kts
28/03:30pm 19.4 17.2 12.2 63 4.0 NNE 15 19 8 10 1024.4 - 0.0
28/03:00pm 19.4 17.3 12.4 64 3.9 NNE 15 20 8 11 1024.3 - 0.0
28/02:30pm 19.6 17.2 12.6 64 3.9 NNE 17 20 9 11 1024.2 1024.2 0.0
28/02:00pm 19.5 16.6 12.3 63 4.0 NE 19 22 10 12 1024.2 - 0.0
28/01:30pm 19.7 16.8 12.3 62 4.1 NNE 19 20 10 11 1024.3 - 0.0
28/01:00pm 19.6 17.2 12.6 64 3.9 NNE 17 22 9 12 1024.5 - 0.0
28/12:30pm 19.5 17.0 12.3 63 4.0 NNE 17 20 9 11 1024.6 - 0.0
28/12:00pm 20.0 18.1 11.9 59 4.5 NNE 13 17 7 9 1024.7 - 0.0
28/11:30am 20.3 18.3 12.8 62 4.2 NE 15 17 8 9 1024.8 1024.8 0.0
28/11:00am 20.0 17.9 12.5 62 4.2 NE 15 20 8 11 1025.2 - 0.0
28/10:30am 20.1 17.8 11.8 59 4.6 NE 15 20 8 11 1025.5 - 0.0
28/10:00am 20.1 17.6 12.4 61 4.3 NE 17 20 9 11 1025.7 - 0.0
28/09:30am 20.8 18.8 12.6 59 4.6 NE 15 20 8 11 1025.8 - 0.0
28/08:30am 20.1 18.3 12.2 60 4.4 NE 13 19 7 10 1026.0 1026.0 0.0
28/08:00am 20.0 18.4 12.7 63 4.1 NE 13 17 7 9 1025.6 - 0.0
28/07:30am 19.3 17.9 12.1 63 4.0 ENE 11 15 6 8 1025.3 - 0.0
28/05:30am 12.8 13.2 11.3 91 0.8 CALM 0 0 0 0 1024.5 1024.5 0.0
28/05:00am 13.5 14.1 12.0 91 0.8 CALM 0 0 0 0 1024.1 - 0.0
28/04:30am 12.3 12.6 11.0 92 0.7 CALM 0 0 0 0 1024.1 - 0.0
28/04:00am 12.3 12.7 11.1 92 0.6 CALM 0 0 0 0 1024.0 - 0.0
28/03:30am 11.8 12.0 10.6 92 0.6 CALM 0 0 0 0 1023.9 - 0.0
28/03:00am 12.2 12.6 11.2 94 0.5 CALM 0 0 0 0 1023.8 - 0.0
28/02:30am 12.8 13.3 11.7 93 0.6 CALM 0 0 0 0 1023.8 1023.8 0.0
28/02:00am 12.4 12.7 10.9 90 0.8 CALM 0 0 0 0 1023.7 - 0.0
28/01:30am 13.6 14.1 11.5 87 1.1 CALM 0 0 0 0 1023.9 - 0.0
28/01:00am 14.0 14.6 11.8 86 1.2 CALM 0 0 0 0 1024.0 - 0.0
28/12:30am 12.9 13.3 11.4 91 0.8 CALM 0 0 0 0 1024.0 - 0.0
28/12:00am 13.3 13.9 11.8 91 0.8 CALM 0 0 0 0 1024.0 - 0.0
 
Date/Time
EST
Temp
°C
App
Temp
°C
Dew
Point
Rel
Hum
%
Delta-T
°C
Wind Press
QNH
hPa
Press
MSL
hPa
Rain
since 9 am
mm
Dir
 
Spd
km/h
Gust
km/h
Spd
kts
Gust
kts
27/11:30pm 13.3 13.7 11.4 88 1.0 CALM 0 0 0 0 1024.1 1024.1 0.0
27/11:00pm 13.9 14.4 11.6 86 1.2 CALM 0 0 0 0 1024.2 - 0.0
27/10:30pm 17.2 15.5 9.7 61 3.9 SE 9 11 5 6 1024.0 - 0.0
27/10:00pm 18.1 16.3 9.5 57 4.5 SE 9 11 5 6 1024.1 - 0.0
27/09:30pm 18.3 16.3 10.2 59 4.3 SE 11 13 6 7 1024.1 - 0.0
27/09:00pm 18.5 16.6 10.4 59 4.3 SE 11 15 6 8 1024.1 - 0.0
27/08:30pm 18.7 16.2 9.8 56 4.7 SE 13 17 7 9 1024.2 1024.2 0.0
27/08:00pm 18.6 16.7 10.6 59 4.3 SE 11 15 6 8 1024.1 - 0.0
27/07:30pm 18.6 16.5 11.0 61 4.1 SE 13 15 7 8 1024.1 - 0.0
27/07:00pm 18.0 16.5 10.5 61 4.0 ESE 9 17 5 9 1023.9 - 0.0
27/06:30pm 15.3 14.8 12.2 82 1.7 SSE 6 11 3 6 1023.7 - 0.0
27/06:00pm 16.9 15.6 11.3 69 3.0 SSE 9 13 5 7 1023.3 - 0.0
27/05:30pm 15.5 16.4 14.1 91 0.8 ENE 2 7 1 4 1022.9 1022.9 0.0
27/05:00pm 16.5 18.0 14.6 88 1.1 CALM 0 0 0 0 1022.9 - 0.0
27/04:30pm 17.4 19.0 14.8 85 1.5 CALM 0 0 0 0 1022.7 - 0.0
27/04:00pm 18.8 20.0 14.8 77 2.3 WSW 2 7 1 4 1022.5 - 0.0
27/03:30pm 19.9 19.4 13.8 68 3.5 WSW 9 13 5 7 1022.5 - 0.0
27/03:00pm 20.7 20.5 13.7 64 4.0 W 7 7 4 4 1022.4 - 0.0
27/02:30pm 20.7 20.4 13.3 62 4.2 W 7 9 4 5 1022.3 1022.3 0.0
27/02:00pm 20.5 20.3 13.7 65 3.9 WSW 7 9 4 5 1022.2 - 0.0
27/01:30pm 20.4 20.4 13.6 65 3.9 WSW 6 7 3 4 1022.2 - 0.0
27/01:00pm 20.1 20.0 14.0 68 3.5 WSW 7 9 4 5 1022.6 - 0.0
27/12:30pm 20.3 20.6 14.4 69 3.4 WSW 6 7 3 4 1022.8 - 0.0
27/12:00pm 19.4 19.6 14.7 74 2.7 W 7 9 4 5 1023.2 - 0.0
27/11:30am 20.2 21.1 16.0 77 2.5 W 6 9 3 5 1023.4 1023.4 0.0
27/11:00am 18.3 19.0 15.7 85 1.5 NW 6 9 3 5 1023.8 - 0.0
27/10:30am 17.9 18.7 15.9 88 1.2 S 6 7 3 4 1024.3 - 0.0
27/10:00am 18.1 18.9 15.9 87 1.3 SSW 6 7 3 4 1024.6 - 0.0
27/09:30am 18.0 19.4 15.4 85 1.5 SW 2 7 1 4 1024.6 - 0.0
27/09:00am 17.5 19.1 16.0 91 0.9 WSW 2 6 1 3 1024.5 - 0.0
27/08:30am 17.0 18.3 15.1 88 1.1 NW 2 9 1 5 1024.6 1024.6 12.4
27/08:00am 16.6 18.3 15.2 91 0.8 CALM 0 6 0 3 1024.2 - 12.4
27/07:30am 16.2 17.0 14.8 91 0.8 S 4 7 2 4 1024.2 - 12.2
27/07:00am 15.8 16.4 14.2 90 0.9 ESE 4 7 2 4 1023.9 - 12.2
27/06:30am 15.9 16.0 13.9 88 1.1 ESE 6 9 3 5 1023.9 - 12.0
27/05:59am 16.1 15.9 14.7 91 0.8 S 9 20 5 11 1023.7 - 11.0
27/05:42am 17.8 17.4 14.1 79 2.1 ESE 9 19 5 10 1023.2 - 6.0
27/05:30am 18.7 17.9 11.8 64 3.8 SE 7 9 4 5 1023.1 1023.1 5.6
27/05:00am 19.3 16.0 11.0 58 4.5 WSW 19 24 10 13 1022.9 - 5.6
27/04:30am 19.3 17.0 11.9 62 4.1 WSW 15 22 8 12 1022.8 - 5.6
27/04:00am 18.8 16.9 11.9 64 3.8 SW 13 20 7 11 1022.8 - 5.6
27/03:30am 14.8 14.2 11.6 81 1.7 S 6 9 3 5 1022.7 - 5.6
27/03:00am 14.7 14.7 11.3 80 1.8 E 2 7 1 4 1023.1 - 5.6
27/02:30am 14.9 14.5 11.1 78 2.0 ENE 4 7 2 4 1023.1 1023.1 5.6
27/02:00am 17.6 17.1 10.7 64 3.7 SE 4 7 2 4 1023.1 - 5.6
27/01:30am 17.1 17.0 10.7 66 3.4 SSE 2 9 1 5 1023.6 - 5.6
27/01:00am 16.7 15.4 11.1 69 3.0 S 9 13 5 7 1023.7 - 5.6
27/12:30am 15.2 15.7 11.7 79 1.9 CALM 0 0 0 0 1023.8 - 5.6
27/12:00am 16.3 16.3 11.3 72 2.7 S 2 9 1 5 1023.9 - 5.6
 
Date/Time
EST
Temp
°C
App
Temp
°C
Dew
Point
Rel
Hum
%
Delta-T
°C
Wind Press
QNH
hPa
Press
MSL
hPa
Rain
since 9 am
mm
Dir
 
Spd
km/h
Gust
km/h
Spd
kts
Gust
kts
26/11:30pm 17.2 16.4 11.0 67 3.3 S 6 9 3 5 1024.1 1024.1 5.6
26/11:00pm 18.1 16.9 10.4 60 4.1 SSE 7 15 4 8 1024.2 - 5.6
26/10:30pm 17.5 16.5 11.0 65 3.5 SSE 7 13 4 7 1024.4 - 5.6
26/10:00pm 17.5 16.3 10.3 62 3.8 SSE 7 11 4 6 1024.7 - 5.6
26/09:30pm 17.4 16.4 10.9 65 3.5 S 7 11 4 6 1024.8 - 5.6
26/09:00pm 16.4 17.0 13.0 80 1.9 SSE 2 7 1 4 1024.9 - 5.6
26/08:30pm 17.6 17.1 12.1 70 3.0 S 6 9 3 5 1024.9 1024.9 5.6
26/08:00pm 16.8 16.7 13.2 79 2.0 SSE 6 9 3 5 1025.0 - 5.6
26/07:30pm 19.1 16.1 12.6 66 3.6 WSW 20 28 11 15 1024.9 - 5.6
26/07:00pm 18.1 16.4 12.3 69 3.2 SSW 13 19 7 10 1025.1 - 5.6
26/06:30pm 17.8 16.3 13.2 74 2.6 SSW 13 20 7 11 1025.0 - 5.6
26/06:00pm 16.7 16.5 13.5 81 1.8 S 7 9 4 5 1024.9 - 5.6
26/05:30pm 17.7 16.4 13.8 78 2.2 SSW 13 20 7 11 1024.8 1024.8 5.6
26/05:00pm 16.2 16.2 14.3 88 1.1 SSW 7 9 4 5 1024.7 - 5.6
26/04:46pm 16.3 15.9 14.2 87 1.2 S 9 11 5 6 1024.8 - 5.6
26/04:30pm 16.8 15.5 14.7 87 1.2 WSW 15 22 8 12 1024.7 - 5.6
26/04:27pm 17.1 14.9 15.0 87 1.2 WSW 20 22 11 12 1024.8 - 5.0
26/04:00pm 17.7 17.7 14.2 80 2.0 SW 7 9 4 5 1024.7 - 4.0
26/03:30pm 18.4 19.6 15.9 85 1.5 WNW 4 7 2 4 1024.9 - 4.0
26/03:06pm 17.3 17.9 15.2 87 1.2 S 6 7 3 4 1025.1 - 4.0
26/03:00pm 16.7 17.0 15.0 90 1.0 S 7 13 4 7 1025.1 - 4.0
26/02:48pm 16.6 15.3 14.7 88 1.1 SSW 15 20 8 11 1025.3 - 3.6
26/02:30pm 17.7 17.9 14.6 82 1.8 SSW 7 13 4 7 1025.2 1025.2 3.4
26/02:10pm 16.5 14.6 14.2 86 1.3 S 17 24 9 13 1025.4 - 2.4
26/02:00pm 16.9 14.5 13.7 81 1.8 S 19 26 10 14 1025.3 - 2.2
26/01:30pm 19.3 18.3 13.3 68 3.4 N 11 22 6 12 1025.4 - 2.2
26/01:00pm 19.9 19.4 13.8 68 3.5 N 9 13 5 7 1025.6 - 2.2
26/12:30pm 19.8 19.2 14.6 72 3.0 N 11 19 6 10 1026.2 - 2.2
26/12:00pm 19.0 18.7 14.3 74 2.7 NE 9 13 5 7 1026.5 - 2.2
26/11:30am 17.4 18.1 14.4 82 1.7 S 4 9 2 5 1027.4 1027.3 2.2
26/11:00am 16.7 16.8 14.4 86 1.3 WNW 7 11 4 6 1028.1 - 0.8
26/10:30am 18.5 18.3 13.7 73 2.7 WNW 7 17 4 9 1028.3 - 0.4
26/10:00am 18.5 17.9 14.7 78 2.2 W 11 17 6 9 1028.4 - 0.2
26/09:30am 17.6 16.8 13.9 79 2.1 W 11 17 6 9 1028.7 - 0.0
26/09:22am 18.0 15.3 13.6 75 2.5 W 20 26 11 14 1028.6 - 0.0
26/09:00am 18.9 17.7 11.6 62 4.0 E 9 13 5 7 1028.5 - 0.0
26/08:30am 19.2 17.3 11.7 62 4.1 NE 13 17 7 9 1028.6 1028.5 0.0
26/08:00am 19.0 17.1 11.7 62 4.0 NE 13 17 7 9 1028.5 - 0.0
26/07:30am 18.8 16.8 11.4 62 4.0 NE 13 19 7 10 1028.5 - 0.0
26/07:00am 18.4 17.1 11.2 63 3.9 ENE 9 11 5 6 1028.6 - 0.0
26/06:30am 18.4 16.1 10.5 60 4.2 ENE 13 17 7 9 1028.4 - 0.0
26/06:00am 18.1 16.2 10.6 61 4.0 E 11 15 6 8 1028.3 - 0.0
26/05:30am 16.5 15.8 11.3 71 2.8 ESE 6 9 3 5 1028.2 1028.1 0.0
26/05:00am 17.1 16.2 11.3 68 3.1 ESE 7 9 4 5 1028.1 - 0.0
26/04:30am 16.9 16.0 11.3 69 3.0 SE 7 9 4 5 1028.0 - 0.0
26/04:00am 16.2 16.2 11.3 73 2.6 ESE 2 9 1 5 1028.2 - 0.0
26/03:30am 17.7 16.5 9.4 58 4.3 SE 6 11 3 6 1028.1 - 0.0
26/03:00am 17.2 15.5 9.7 61 3.9 SE 9 11 5 6 1028.2 - 0.0
26/02:30am 17.8 16.0 9.3 57 4.4 SE 9 11 5 6 1028.4 1028.3 0.0
26/02:00am 17.9 16.1 9.5 58 4.4 SSE 9 15 5 8 1028.8 - 0.0
26/01:30am 17.6 15.8 9.5 59 4.2 SE 9 11 5 6 1028.6 - 0.0
26/01:00am 17.5 15.8 9.9 61 4.0 SE 9 11 5 6 1029.0 - 0.0
26/12:30am 18.0 16.2 9.6 58 4.4 SE 9 13 5 7 1029.2 - 0.0
26/12:00am 18.4 16.2 9.4 55 4.7 ESE 11 17 6 9 1029.6 - 0.0
 
Date/Time
EST
Temp
°C
App
Temp
°C
Dew
Point
Rel
Hum
%
Delta-T
°C
Wind Press
QNH
hPa
Press
MSL
hPa
Rain
since 9 am
mm
Dir
 
Spd
km/h
Gust
km/h
Spd
kts
Gust
kts
25/11:30pm 18.4 16.1 8.9 54 4.9 SE 11 13 6 7 1029.5 1029.4 0.0
25/11:00pm 18.6 16.4 9.2 54 4.9 SE 11 13 6 7 1029.3 - 0.0
25/10:30pm 18.1 17.1 10.2 60 4.2 SSE 6 9 3 5 1029.7 - 0.0
25/10:00pm 17.7 17.6 10.8 64 3.7 SE 2 7 1 4 1029.4 - 0.0
25/09:30pm 18.1 16.9 10.2 60 4.2 SE 7 11 4 6 1029.2 - 0.0
25/09:00pm 18.4 17.1 9.9 57 4.5 ESE 7 13 4 7 1029.3 - 0.0
25/08:30pm 17.3 16.7 11.8 70 3.0 SSE 6 7 3 4 1029.6 1029.5 0.0
25/08:00pm 17.0 16.5 12.6 75 2.4 SSE 7 11 4 6 1029.8 - 0.0
25/07:30pm 17.5 16.8 11.4 67 3.3 S 6 7 3 4 1029.7 - 0.0
25/07:00pm 18.1 16.8 11.2 64 3.7 SE 9 15 5 8 1029.5 - 0.0
25/06:30pm 17.9 16.5 11.0 64 3.7 SE 9 15 5 8 1029.7 - 0.0
25/06:00pm 17.4 17.0 12.3 72 2.8 SSE 6 11 3 6 1029.5 - 0.0
25/05:30pm 16.4 16.1 13.3 82 1.7 S 7 13 4 7 1029.3 1029.2 0.0
25/05:00pm 17.3 15.6 12.4 73 2.7 S 13 26 7 14 1029.1 - 0.0
25/04:30pm 17.8 17.1 11.9 68 3.2 S 7 9 4 5 1028.7 - 0.0
25/04:00pm 18.5 18.0 11.9 65 3.6 S 6 9 3 5 1028.4 - 0.0
25/03:30pm 18.7 18.3 11.1 61 4.1 SE 4 9 2 5 1028.1 - 0.0

Other Formats:

Comma delimited format used in spreadsheet applications
http://www.bom.gov.au/fwo/IDN60801/IDN60801.94995.axf

JavaScript Object Notation format (JSON) in row-major order
http://www.bom.gov.au/fwo/IDN60801/IDN60801.94995.json